createdAt,value
2018-05-16T00:00:39.471Z,4.63
2018-05-16T00:03:07.848Z,3.90
2018-05-16T00:05:36.233Z,4.20
2018-05-16T00:08:03.876Z,4.13
2018-05-16T00:10:32.279Z,4.37
2018-05-16T00:12:59.903Z,4.23
2018-05-16T00:15:27.522Z,4.20
2018-05-16T00:17:55.136Z,3.87
2018-05-16T00:20:23.517Z,4.43
2018-05-16T00:22:51.925Z,3.80
2018-05-16T00:25:19.540Z,4.60
2018-05-16T00:27:47.154Z,4.57
2018-05-16T00:30:14.772Z,4.10
2018-05-16T00:32:43.148Z,3.83
2018-05-16T00:35:11.532Z,4.43
2018-05-16T00:37:39.921Z,3.90
2018-05-16T00:40:07.556Z,3.87
2018-05-16T00:42:35.933Z,4.23
2018-05-16T00:45:04.320Z,4.50
2018-05-16T00:47:32.708Z,4.20
2018-05-16T00:50:01.083Z,4.30
2018-05-16T00:52:29.464Z,4.70
2018-05-16T00:54:57.072Z,4.00
2018-05-16T00:57:24.696Z,4.47
2018-05-16T00:59:52.320Z,4.57
2018-05-16T01:02:19.954Z,3.97
2018-05-16T01:04:47.575Z,4.40
2018-05-16T01:07:15.179Z,4.40
2018-05-16T01:09:42.795Z,4.30
2018-05-16T01:12:10.404Z,4.57
2018-05-16T01:14:38.020Z,4.10
2018-05-16T01:17:05.637Z,4.67
2018-05-16T01:19:33.247Z,4.80
2018-05-16T01:22:00.864Z,4.80
2018-05-16T01:24:29.236Z,4.40
2018-05-16T01:26:56.856Z,4.90
2018-05-16T01:29:24.491Z,5.17
2018-05-16T01:31:52.218Z,4.70
2018-05-16T01:34:19.863Z,5.13
2018-05-16T01:36:47.476Z,4.90
2018-05-16T01:39:15.100Z,5.20
2018-05-16T01:41:42.716Z,5.40
2018-05-16T01:44:10.332Z,5.43
2018-05-16T01:46:38.722Z,4.60
2018-05-16T01:49:18.108Z,4.73
2018-05-16T01:51:45.724Z,4.63
2018-05-16T01:54:13.347Z,4.77
2018-05-16T01:56:40.972Z,5.17
2018-05-16T01:59:08.582Z,5.67
2018-05-16T02:01:36.959Z,5.63
2018-05-16T02:04:05.333Z,5.47
2018-05-16T02:06:33.767Z,4.63
2018-05-16T02:09:01.375Z,5.70
2018-05-16T02:11:29.760Z,5.60
2018-05-16T02:13:58.140Z,5.50
2018-05-16T02:16:26.511Z,5.43
2018-05-16T02:18:54.900Z,5.60
2018-05-16T02:21:22.560Z,5.33
2018-05-16T02:23:50.186Z,5.13
2018-05-16T02:26:17.809Z,6.03
2018-05-16T02:28:45.425Z,5.77
2018-05-16T02:31:13.807Z,5.93
2018-05-16T02:33:42.184Z,6.13
2018-05-16T02:36:10.580Z,4.67
2018-05-16T02:38:38.191Z,5.07
2018-05-16T02:41:05.808Z,4.97
2018-05-16T02:43:33.437Z,4.70
2018-05-16T02:46:01.812Z,5.13
2018-05-16T02:48:30.206Z,5.13
2018-05-16T02:50:58.588Z,5.60
2018-05-16T02:53:26.216Z,4.80
2018-05-16T02:55:53.844Z,5.10
2018-05-16T02:58:21.465Z,5.07
2018-05-16T03:00:49.072Z,5.13
2018-05-16T03:03:16.687Z,5.43
2018-05-16T03:05:44.304Z,5.10
2018-05-16T03:08:11.916Z,5.23
2018-05-16T03:10:39.532Z,5.50
2018-05-16T03:13:07.153Z,5.77
2018-05-16T03:15:34.778Z,4.50
2018-05-16T03:18:03.160Z,4.83
2018-05-16T03:20:31.556Z,4.93
2018-05-16T03:22:59.184Z,4.97
2018-05-16T03:25:27.583Z,4.70
2018-05-16T03:27:55.212Z,4.90
2018-05-16T03:30:22.831Z,4.90
2018-05-16T03:32:50.445Z,4.47
2018-05-16T03:35:18.817Z,5.10
2018-05-16T03:37:47.206Z,5.13
2018-05-16T03:40:15.576Z,4.77
2018-05-16T03:42:43.964Z,5.03
2018-05-16T03:45:12.344Z,4.50
2018-05-16T03:47:40.722Z,4.83
2018-05-16T03:50:09.104Z,4.13
2018-05-16T03:52:36.709Z,3.83
2018-05-16T03:55:04.368Z,4.30
2018-05-16T03:57:43.832Z,4.80
2018-05-16T04:00:23.315Z,4.67
2018-05-16T04:03:02.768Z,4.60
2018-05-16T04:05:30.392Z,4.30
2018-05-16T04:07:58.764Z,4.30
2018-05-16T04:10:27.188Z,4.10
2018-05-16T04:12:54.811Z,4.87
2018-05-16T04:15:22.420Z,4.37
2018-05-16T04:17:50.040Z,4.30
2018-05-16T04:20:18.500Z,4.23
2018-05-16T04:22:46.877Z,4.40
2018-05-16T04:25:15.280Z,5.10
2018-05-16T04:27:42.887Z,4.33
2018-05-16T04:30:10.508Z,4.80
2018-05-16T04:32:38.133Z,4.63
2018-05-16T04:35:06.967Z,3.80
2018-05-16T04:37:34.584Z,4.07
2018-05-16T04:40:02.968Z,4.43
2018-05-16T04:42:31.357Z,4.10
2018-05-16T04:44:58.969Z,4.40
2018-05-16T04:47:26.604Z,4.30
2018-05-16T04:49:54.219Z,4.80
2018-05-16T04:52:22.592Z,4.93
2018-05-16T04:54:50.983Z,3.97
2018-05-16T04:57:18.611Z,3.93
2018-05-16T04:59:46.226Z,4.97
2018-05-16T05:02:13.848Z,3.80
2018-05-16T05:04:42.690Z,4.90
2018-05-16T05:07:10.320Z,3.90
2018-05-16T05:09:37.940Z,3.93
2018-05-16T05:12:05.564Z,4.70
2018-05-16T05:14:33.183Z,4.67
2018-05-16T05:17:01.575Z,4.57
2018-05-16T05:19:29.211Z,3.93
2018-05-16T05:21:57.608Z,3.63
2018-05-16T05:24:25.238Z,3.80
2018-05-16T05:26:52.861Z,3.70
2018-05-16T05:29:20.468Z,3.50
2018-05-16T05:31:48.871Z,4.10
2018-05-16T05:34:16.492Z,4.00
2018-05-16T05:36:44.165Z,3.67
2018-05-16T05:39:12.552Z,4.03
2018-05-16T05:41:40.947Z,4.40
2018-05-16T05:44:08.572Z,4.30
2018-05-16T05:46:36.198Z,4.43
2018-05-16T05:49:03.898Z,3.80
2018-05-16T05:51:31.475Z,3.33
2018-05-16T05:53:59.871Z,3.87
2018-05-16T05:56:27.493Z,4.33
2018-05-16T05:58:55.116Z,4.47
2018-05-16T06:01:22.728Z,4.10
2018-05-16T06:03:51.116Z,3.50
2018-05-16T06:06:19.509Z,3.70
2018-05-16T06:08:47.132Z,3.37
2018-05-16T06:11:14.772Z,4.50
2018-05-16T06:13:42.409Z,3.53
2018-05-16T06:16:10.026Z,3.80
2018-05-16T06:18:38.414Z,3.97
2018-05-16T06:21:06.047Z,3.90
2018-05-16T06:23:33.677Z,3.47
2018-05-16T06:26:01.300Z,3.50
2018-05-16T06:28:28.965Z,3.40
2018-05-16T06:30:56.589Z,3.87
2018-05-16T06:33:25.012Z,3.37
2018-05-16T06:35:52.640Z,3.80
2018-05-16T06:38:21.024Z,4.10
2018-05-16T06:40:49.451Z,3.40
2018-05-16T06:43:17.060Z,3.53
2018-05-16T06:45:45.541Z,3.03
2018-05-16T06:48:13.111Z,3.60
2018-05-16T06:50:40.724Z,3.17
2018-05-16T06:53:08.344Z,4.07
2018-05-16T06:55:35.962Z,3.87
2018-05-16T06:58:03.585Z,5.80
2018-05-16T07:00:31.214Z,3.70
2018-05-16T07:02:58.852Z,3.10
2018-05-16T07:05:26.509Z,3.47
2018-05-16T07:07:54.888Z,3.80
2018-05-16T07:10:23.278Z,4.10
2018-05-16T07:12:51.660Z,3.47
2018-05-16T07:15:19.269Z,3.40
2018-05-16T07:17:46.889Z,4.20
2018-05-16T07:20:14.504Z,3.20
2018-05-16T07:22:42.187Z,3.80
2018-05-16T07:25:09.791Z,3.70
2018-05-16T07:27:37.412Z,3.20
2018-05-16T07:30:05.836Z,3.63
2018-05-16T07:32:33.467Z,3.53
2018-05-16T07:35:01.110Z,3.00
2018-05-16T07:37:29.502Z,3.70
2018-05-16T07:39:57.123Z,3.27
2018-05-16T07:42:24.756Z,3.57
2018-05-16T07:44:52.385Z,3.50
2018-05-16T07:47:20.019Z,3.50
2018-05-16T07:49:48.404Z,3.50
2018-05-16T07:52:16.852Z,3.47
2018-05-16T07:54:44.467Z,4.30
2018-05-16T07:57:12.075Z,3.93
2018-05-16T07:59:39.700Z,3.60
2018-05-16T08:02:07.308Z,3.50
2018-05-16T08:04:34.928Z,3.17
2018-05-16T08:07:02.565Z,3.47
2018-05-16T08:09:30.256Z,3.60
2018-05-16T08:11:57.867Z,2.90
2018-05-16T08:14:26.268Z,3.37
2018-05-16T08:16:53.888Z,3.75
2018-05-16T08:19:21.506Z,3.37
2018-05-16T08:21:49.139Z,3.78
2018-05-16T08:24:16.779Z,3.53
2018-05-16T08:26:45.161Z,3.50
2018-05-16T08:29:13.552Z,3.40
2018-05-16T08:31:41.168Z,4.10
2018-05-16T08:34:08.808Z,3.70
2018-05-16T08:36:36.444Z,3.17
2018-05-16T08:39:04.113Z,3.45
2018-05-16T08:41:31.761Z,3.67
2018-05-16T08:43:59.382Z,3.67
2018-05-16T08:46:27.096Z,4.43
2018-05-16T08:48:55.450Z,3.10
2018-05-16T08:51:23.077Z,4.10
2018-05-16T08:53:50.706Z,3.53
2018-05-16T08:56:18.317Z,2.80
2018-05-16T08:58:46.709Z,3.50
2018-05-16T09:01:14.335Z,3.55
2018-05-16T09:03:41.963Z,3.20
2018-05-16T09:06:09.580Z,3.60
2018-05-16T09:08:37.965Z,3.83
2018-05-16T09:11:05.596Z,3.80
2018-05-16T09:13:33.227Z,3.40
2018-05-16T09:16:00.881Z,3.65
2018-05-16T09:18:28.500Z,3.53
2018-05-16T09:20:56.882Z,3.03
2018-05-16T09:23:24.505Z,3.67
2018-05-16T09:25:52.128Z,3.05
2018-05-16T09:28:19.790Z,3.35
2018-05-16T09:30:47.411Z,3.75
2018-05-16T09:33:15.800Z,3.10
2018-05-16T09:35:44.181Z,3.42
2018-05-16T09:38:11.805Z,3.65
2018-05-16T09:40:39.429Z,4.12
2018-05-16T09:43:07.052Z,3.60
2018-05-16T09:45:35.455Z,3.95
2018-05-16T09:48:03.072Z,3.67
2018-05-16T09:50:30.707Z,4.12
2018-05-16T09:52:58.352Z,3.65
2018-05-16T09:55:25.976Z,4.43
2018-05-16T09:57:53.599Z,4.07
2018-05-16T10:00:26.838Z,4.28
2018-05-16T10:02:54.683Z,4.03
2018-05-16T10:05:22.260Z,3.97
2018-05-16T10:07:49.872Z,3.70
2018-05-16T10:10:17.511Z,4.28
2018-05-16T10:12:45.128Z,3.37
2018-05-16T10:15:13.524Z,3.70
2018-05-16T10:17:41.144Z,4.00
2018-05-16T10:20:08.797Z,3.90
2018-05-16T10:22:36.485Z,3.93
2018-05-16T10:25:04.910Z,3.67
2018-05-16T10:27:32.528Z,3.67
2018-05-16T10:30:00.908Z,3.53
2018-05-16T10:32:29.312Z,3.93
2018-05-16T10:34:56.932Z,4.07
2018-05-16T10:37:25.313Z,3.87
2018-05-16T10:39:53.709Z,4.50
2018-05-16T10:42:21.324Z,3.50
2018-05-16T10:44:48.952Z,3.90
2018-05-16T10:47:16.576Z,4.20
2018-05-16T10:49:44.969Z,4.13
2018-05-16T10:52:12.663Z,4.03
2018-05-16T10:54:40.254Z,4.10
2018-05-16T10:57:07.871Z,4.00
2018-05-16T10:59:35.483Z,4.50
2018-05-16T11:02:03.898Z,4.20
2018-05-16T11:04:31.508Z,4.17
2018-05-16T11:06:59.133Z,3.80
2018-05-16T11:09:26.768Z,3.93
2018-05-16T11:11:54.399Z,4.15
2018-05-16T11:14:22.801Z,3.65
2018-05-16T11:16:50.419Z,3.83
2018-05-16T11:19:18.174Z,3.83
2018-05-16T11:21:45.696Z,3.80
2018-05-16T11:24:13.316Z,4.10
2018-05-16T11:26:41.708Z,3.97
2018-05-16T11:29:10.127Z,4.03
2018-05-16T11:31:37.756Z,3.87
2018-05-16T11:34:05.390Z,4.15
2018-05-16T11:36:33.789Z,4.00
2018-05-16T11:39:01.411Z,3.85
2018-05-16T11:41:29.024Z,3.83
2018-05-16T11:43:56.673Z,3.92
2018-05-16T11:46:24.283Z,3.90
2018-05-16T11:48:51.966Z,4.28
2018-05-16T11:51:19.588Z,3.55
2018-05-16T11:53:47.217Z,3.92
2018-05-16T11:56:14.836Z,4.03
2018-05-16T11:58:42.456Z,3.87
2018-05-16T12:01:10.084Z,3.70
2018-05-16T12:03:38.459Z,4.30
2018-05-16T12:06:06.854Z,4.37
2018-05-16T12:08:34.482Z,3.83
2018-05-16T12:11:02.864Z,4.30
2018-05-16T12:13:31.272Z,4.37
2018-05-16T12:15:58.896Z,3.85
2018-05-16T12:18:26.530Z,3.60
2018-05-16T12:20:54.148Z,4.00
2018-05-16T12:23:21.784Z,3.62
2018-05-16T12:25:50.187Z,3.78
2018-05-16T12:28:17.796Z,4.35
2018-05-16T12:30:45.420Z,4.07
2018-05-16T12:33:13.033Z,3.58
2018-05-16T12:35:40.671Z,4.62
2018-05-16T12:38:08.292Z,3.40
2018-05-16T12:40:35.924Z,3.37
2018-05-16T12:43:16.110Z,3.95
2018-05-16T12:45:43.724Z,3.78
2018-05-16T12:48:11.401Z,3.97
2018-05-16T12:50:39.789Z,3.55
2018-05-16T12:53:08.186Z,3.47
2018-05-16T12:55:35.826Z,3.97
2018-05-16T12:58:03.485Z,3.70
2018-05-16T13:00:31.879Z,3.70
2018-05-16T13:02:59.492Z,3.55
2018-05-16T13:05:27.114Z,3.67
2018-05-16T13:07:54.744Z,3.80
2018-05-16T13:10:23.128Z,3.25
2018-05-16T13:12:50.855Z,3.35
2018-05-16T13:15:18.445Z,2.97
2018-05-16T13:17:46.844Z,3.55
2018-05-16T13:20:14.469Z,3.45
2018-05-16T13:22:42.863Z,3.80
2018-05-16T13:25:11.267Z,3.53
2018-05-16T13:27:38.890Z,3.60
2018-05-16T13:30:07.274Z,3.15
2018-05-16T13:32:35.668Z,3.12
2018-05-16T13:35:03.320Z,3.10
2018-05-16T13:37:30.951Z,3.55
2018-05-16T13:39:58.619Z,3.80
2018-05-16T13:42:26.268Z,7.90
2018-05-16T13:44:53.892Z,3.45
2018-05-16T13:47:21.508Z,2.83
2018-05-16T13:49:49.893Z,3.30
2018-05-16T13:52:18.277Z,3.42
2018-05-16T13:54:45.907Z,3.05
2018-05-16T13:57:13.540Z,3.20
2018-05-16T13:59:41.161Z,3.17
2018-05-16T14:02:08.787Z,3.37
2018-05-16T14:04:36.404Z,3.35
2018-05-16T14:07:04.024Z,3.05
2018-05-16T14:09:32.417Z,2.60
2018-05-16T14:12:00.040Z,2.75
2018-05-16T14:14:27.670Z,2.90
2018-05-16T14:16:55.287Z,5.07
2018-05-16T14:19:23.681Z,3.05
2018-05-16T14:21:51.313Z,3.53
2018-05-16T14:24:19.692Z,2.87
2018-05-16T14:26:48.089Z,2.80
2018-05-16T14:29:15.726Z,3.08
2018-05-16T14:31:44.112Z,2.90
2018-05-16T14:34:12.558Z,6.37
2018-05-16T14:36:40.189Z,3.53
2018-05-16T14:39:07.809Z,3.20
2018-05-16T14:41:36.185Z,3.65
2018-05-16T14:44:04.641Z,3.50
2018-05-16T14:46:32.268Z,3.20
2018-05-16T14:48:59.884Z,3.12
2018-05-16T14:51:28.282Z,2.83
2018-05-16T14:53:55.941Z,3.10
2018-05-16T14:56:23.572Z,2.92
2018-05-16T14:58:51.202Z,2.95
2018-05-16T15:01:18.840Z,3.10
2018-05-16T15:03:46.457Z,2.67
2018-05-16T15:06:14.860Z,3.00
2018-05-16T15:08:42.512Z,2.87
2018-05-16T15:11:10.900Z,2.95
2018-05-16T15:13:38.544Z,3.20
2018-05-16T15:16:06.936Z,3.20
2018-05-16T15:18:34.552Z,2.78
2018-05-16T15:21:02.172Z,2.85
2018-05-16T15:23:29.832Z,3.30
2018-05-16T15:25:57.453Z,3.10
2018-05-16T15:28:25.076Z,3.00
2018-05-16T15:30:52.700Z,2.83
2018-05-16T15:33:20.328Z,3.10
2018-05-16T15:35:47.940Z,2.92
2018-05-16T15:38:15.651Z,3.05
2018-05-16T15:40:43.221Z,3.12
2018-05-16T15:43:11.610Z,3.55
2018-05-16T15:45:40.009Z,3.40
2018-05-16T15:48:07.631Z,3.60
2018-05-16T15:50:36.040Z,3.33
2018-05-16T15:53:03.692Z,3.78
2018-05-16T15:55:31.312Z,3.20
2018-05-16T15:57:58.954Z,3.10
2018-05-16T16:00:26.609Z,3.87
2018-05-16T16:02:54.244Z,3.30
2018-05-16T16:05:21.872Z,2.87
2018-05-16T16:07:50.277Z,4.70
2018-05-16T16:10:17.920Z,3.87
2018-05-16T16:12:46.300Z,4.37
2018-05-16T16:15:14.740Z,4.03
2018-05-16T16:17:42.370Z,3.62
2018-05-16T16:20:09.993Z,3.92
2018-05-16T16:22:38.383Z,3.72
2018-05-16T16:25:06.765Z,3.87
2018-05-16T16:27:34.408Z,3.92
2018-05-16T16:30:02.807Z,3.80
2018-05-16T16:32:30.428Z,3.75
2018-05-16T16:34:58.053Z,3.72
2018-05-16T16:37:25.669Z,4.28
2018-05-16T16:39:54.058Z,4.00
2018-05-16T16:42:21.693Z,4.22
2018-05-16T16:44:49.325Z,3.55
2018-05-16T16:47:16.974Z,3.92
2018-05-16T16:49:44.668Z,3.60
2018-05-16T16:52:12.283Z,3.80
2018-05-16T16:54:39.918Z,3.87
2018-05-16T16:57:08.316Z,3.70
2018-05-16T16:59:35.972Z,3.72
2018-05-16T17:02:03.596Z,4.07
2018-05-16T17:04:31.226Z,3.85
2018-05-16T17:06:58.857Z,3.83
2018-05-16T17:09:26.502Z,4.18
2018-05-16T17:11:54.405Z,3.97
2018-05-16T17:14:22.809Z,4.95
2018-05-16T17:16:50.432Z,4.22
2018-05-16T17:19:18.051Z,4.30
2018-05-16T17:21:46.459Z,4.10
2018-05-16T17:24:14.165Z,4.10
2018-05-16T17:26:42.116Z,4.62
2018-05-16T17:29:09.745Z,4.30
2018-05-16T17:31:37.385Z,4.43
2018-05-16T17:34:05.780Z,4.55
2018-05-16T17:36:33.423Z,4.72
2018-05-16T17:39:01.809Z,4.45
2018-05-16T17:41:29.438Z,3.93
2018-05-16T17:43:57.060Z,4.37
2018-05-16T17:46:24.692Z,4.63
2018-05-16T17:48:52.315Z,4.40
2018-05-16T17:51:19.925Z,4.53
2018-05-16T17:53:47.578Z,4.13
2018-05-16T17:56:15.218Z,4.73
2018-05-16T17:58:43.639Z,4.60
2018-05-16T18:01:11.280Z,4.70
2018-05-16T18:03:38.908Z,4.40
2018-05-16T18:06:07.360Z,4.80
2018-05-16T18:08:35.004Z,4.43
2018-05-16T18:11:02.654Z,4.33
2018-05-16T18:13:54.784Z,5.00
2018-05-16T18:16:34.080Z,5.23
2018-05-16T18:19:02.468Z,4.50
2018-05-16T18:21:30.870Z,6.83
2018-05-16T18:23:58.480Z,4.40
2018-05-16T18:26:26.129Z,4.93
2018-05-16T18:28:53.752Z,5.30
2018-05-16T18:31:21.372Z,5.73
2018-05-16T18:33:49.770Z,6.60
2018-05-16T18:36:18.147Z,5.20
2018-05-16T18:38:46.529Z,5.00
2018-05-16T18:41:14.167Z,4.97
2018-05-16T18:43:42.553Z,5.40
2018-05-16T18:46:10.947Z,5.03
2018-05-16T18:48:38.564Z,4.63
2018-05-16T18:51:06.184Z,4.27
2018-05-16T18:53:33.800Z,5.10
2018-05-16T18:56:01.551Z,4.93
2018-05-16T18:58:29.853Z,4.97
2018-05-16T19:00:58.252Z,5.00
2018-05-16T19:03:25.864Z,5.70
2018-05-16T19:05:53.500Z,5.43
2018-05-16T19:08:21.180Z,4.40
2018-05-16T19:10:48.821Z,4.83
2018-05-16T19:13:16.450Z,5.17
2018-05-16T19:15:44.064Z,4.93
2018-05-16T19:18:11.689Z,4.37
2018-05-16T19:20:39.309Z,4.87
2018-05-16T19:23:07.735Z,4.70
2018-05-16T19:25:35.372Z,4.83
2018-05-16T19:28:02.980Z,5.10
2018-05-16T19:30:30.623Z,5.03
2018-05-16T19:32:58.241Z,4.90
2018-05-16T19:35:25.860Z,4.57
2018-05-16T19:37:53.727Z,4.57
2018-05-16T19:40:21.343Z,4.27
2018-05-16T19:42:48.963Z,4.13
2018-05-16T19:45:17.360Z,4.73
2018-05-16T19:47:45.740Z,4.57
2018-05-16T19:50:13.372Z,4.53
2018-05-16T19:52:41.769Z,4.87
2018-05-16T19:55:10.152Z,4.80
2018-05-16T19:57:37.781Z,4.53
2018-05-16T20:00:05.421Z,4.17
2018-05-16T20:02:33.066Z,4.73
2018-05-16T20:05:00.696Z,5.23
2018-05-16T20:07:28.303Z,5.87
2018-05-16T20:09:55.956Z,6.13
2018-05-16T20:12:23.564Z,4.97
2018-05-16T20:14:52.006Z,5.13
2018-05-16T20:17:19.650Z,5.00
2018-05-16T20:19:47.284Z,4.83
2018-05-16T20:22:14.924Z,5.10
2018-05-16T20:24:43.322Z,5.00
2018-05-16T20:27:10.940Z,5.83
2018-05-16T20:29:38.569Z,5.70
2018-05-16T20:32:06.216Z,5.00
2018-05-16T20:34:33.852Z,5.13
2018-05-16T20:37:02.248Z,5.10
2018-05-16T20:39:29.887Z,5.43
2018-05-16T20:41:58.263Z,5.93
2018-05-16T20:44:25.932Z,5.60
2018-05-16T20:46:53.575Z,6.23
2018-05-16T20:49:21.962Z,6.07
2018-05-16T20:51:50.356Z,5.80
2018-05-16T20:54:17.976Z,6.87
2018-05-16T20:56:45.643Z,6.30
2018-05-16T20:59:14.033Z,6.20
2018-05-16T21:01:42.418Z,7.10
2018-05-16T21:04:10.824Z,7.27
2018-05-16T21:06:38.440Z,8.00
2018-05-16T21:09:06.107Z,7.17
2018-05-16T21:11:34.492Z,6.70
2018-05-16T21:14:02.880Z,7.03
2018-05-16T21:16:30.504Z,6.50
2018-05-16T21:18:58.129Z,6.50
2018-05-16T21:21:25.748Z,7.37
2018-05-16T21:23:54.128Z,7.40
2018-05-16T21:26:22.533Z,7.50
2018-05-16T21:28:50.147Z,7.33
2018-05-16T21:31:17.759Z,7.07
2018-05-16T21:33:45.381Z,8.03
2018-05-16T21:36:13.765Z,9.07
2018-05-16T21:38:42.158Z,8.90
2018-05-16T21:41:09.787Z,10.00
2018-05-16T21:43:37.403Z,10.80
2018-05-16T21:46:05.029Z,10.57
2018-05-16T21:48:32.657Z,10.97
2018-05-16T21:51:00.283Z,10.70
2018-05-16T21:53:27.892Z,10.73
2018-05-16T21:55:56.300Z,10.07
2018-05-16T21:58:23.908Z,9.73
2018-05-16T22:00:51.540Z,9.77
2018-05-16T22:03:19.177Z,11.03
2018-05-16T22:05:46.788Z,9.63
2018-05-16T22:08:14.399Z,9.37
2018-05-16T22:10:42.035Z,9.07
2018-05-16T22:13:10.471Z,9.63
2018-05-16T22:15:38.084Z,8.73
2018-05-16T22:18:06.472Z,9.53
2018-05-16T22:20:34.105Z,9.87
2018-05-16T22:23:02.493Z,9.20
2018-05-16T22:25:30.876Z,9.53
2018-05-16T22:27:58.507Z,11.90
2018-05-16T22:30:31.699Z,10.10
2018-05-16T22:33:04.913Z,9.77
2018-05-16T22:35:38.979Z,9.43
2018-05-16T22:38:12.260Z,8.53
2018-05-16T22:40:45.455Z,9.27
2018-05-16T22:43:12.583Z,8.93
2018-05-16T22:45:45.739Z,9.20
2018-05-16T22:48:14.123Z,9.60
2018-05-16T22:50:42.514Z,8.50
2018-05-16T22:53:10.136Z,8.30
2018-05-16T22:55:37.751Z,7.70
2018-05-16T22:58:05.359Z,7.97
2018-05-16T23:00:33.022Z,8.43
2018-05-16T23:03:00.646Z,7.57
2018-05-16T23:05:28.624Z,9.23
2018-05-16T23:07:56.249Z,7.63
2018-05-16T23:10:23.880Z,8.00
2018-05-16T23:12:52.267Z,7.97
2018-05-16T23:15:20.639Z,8.17
2018-05-16T23:17:49.028Z,7.83
2018-05-16T23:20:17.405Z,8.33
2018-05-16T23:22:45.024Z,8.07
2018-05-16T23:25:12.643Z,8.07
2018-05-16T23:27:40.255Z,8.10
2018-05-16T23:30:07.883Z,8.57
2018-05-16T23:32:35.499Z,8.37
2018-05-16T23:35:03.895Z,8.97
2018-05-16T23:37:31.519Z,9.30
2018-05-16T23:39:59.180Z,10.17
2018-05-16T23:42:26.807Z,9.03
2018-05-16T23:44:54.428Z,10.30
2018-05-16T23:47:22.048Z,10.97
2018-05-16T23:49:49.668Z,10.83
2018-05-16T23:52:17.287Z,10.53
2018-05-16T23:54:45.671Z,10.37
2018-05-16T23:57:14.068Z,10.37
2018-05-16T23:59:41.679Z,10.93
